createdAt,value
2018-08-29T00:00:21.405Z,23.90
2018-08-29T00:00:53.626Z,23.88
2018-08-29T00:01:25.886Z,23.84
2018-08-29T00:01:57.998Z,23.83
2018-08-29T00:02:30.135Z,23.83
2018-08-29T00:03:02.345Z,23.88
2018-08-29T00:03:34.466Z,23.91
2018-08-29T00:04:06.664Z,23.96
2018-08-29T00:04:38.936Z,23.97
2018-08-29T00:05:11.111Z,23.99
2018-08-29T00:05:43.252Z,23.99
2018-08-29T00:06:15.413Z,23.98
2018-08-29T00:06:47.586Z,23.98
2018-08-29T00:07:19.695Z,23.99
2018-08-29T00:07:51.827Z,23.96
2018-08-29T00:08:23.925Z,23.96
2018-08-29T00:08:56.050Z,23.95
2018-08-29T00:09:28.253Z,23.92
2018-08-29T00:10:00.458Z,23.92
2018-08-29T00:10:32.604Z,23.92
2018-08-29T00:11:04.798Z,23.90
2018-08-29T00:11:36.864Z,23.92
2018-08-29T00:12:09.010Z,23.95
2018-08-29T00:12:41.100Z,23.96
2018-08-29T00:13:13.337Z,23.95
2018-08-29T00:13:45.488Z,23.92
2018-08-29T00:14:17.556Z,23.90
2018-08-29T00:14:49.637Z,23.90
2018-08-29T00:15:21.776Z,23.90
2018-08-29T00:15:54.003Z,23.91
2018-08-29T00:16:26.298Z,23.91
2018-08-29T00:16:58.512Z,23.91
2018-08-29T00:17:30.706Z,23.91
2018-08-29T00:18:02.784Z,23.91
2018-08-29T00:18:35.042Z,23.92
2018-08-29T00:19:07.139Z,23.90
2018-08-29T00:19:39.241Z,23.88
2018-08-29T00:20:11.485Z,23.88
2018-08-29T00:20:43.618Z,23.88
2018-08-29T00:21:15.721Z,23.88
2018-08-29T00:21:47.810Z,23.88
2018-08-29T00:22:20.053Z,23.89
2018-08-29T00:22:52.522Z,23.89
2018-08-29T00:23:24.609Z,23.88
2018-08-29T00:23:56.781Z,23.88
2018-08-29T00:24:28.894Z,23.88
2018-08-29T00:25:00.991Z,23.89
2018-08-29T00:25:33.324Z,23.90
2018-08-29T00:26:05.411Z,23.89
2018-08-29T00:26:37.503Z,23.89
2018-08-29T00:27:09.646Z,23.88
2018-08-29T00:27:41.757Z,23.88
2018-08-29T00:28:13.888Z,23.88
2018-08-29T00:28:46.001Z,23.89
2018-08-29T00:29:18.091Z,23.90
2018-08-29T00:29:50.274Z,23.88
2018-08-29T00:30:22.401Z,23.89
2018-08-29T00:30:54.498Z,23.92
2018-08-29T00:31:26.813Z,23.92
2018-08-29T00:31:58.845Z,23.93
2018-08-29T00:32:30.984Z,23.94
2018-08-29T00:33:03.275Z,23.95
2018-08-29T00:33:35.432Z,23.93
2018-08-29T00:34:07.647Z,23.93
2018-08-29T00:34:39.733Z,23.96
2018-08-29T00:35:11.813Z,23.96
2018-08-29T00:35:44.147Z,23.95
2018-08-29T00:36:16.234Z,23.95
2018-08-29T00:36:48.411Z,23.94
2018-08-29T00:37:20.506Z,23.91
2018-08-29T00:37:52.728Z,23.93
2018-08-29T00:38:24.851Z,23.90
2018-08-29T00:38:56.986Z,23.89
2018-08-29T00:39:29.037Z,23.87
2018-08-29T00:40:01.183Z,23.87
2018-08-29T00:40:33.443Z,23.85
2018-08-29T00:41:05.514Z,23.82
2018-08-29T00:41:37.646Z,23.82
2018-08-29T00:42:09.887Z,23.83
2018-08-29T00:42:41.971Z,23.83
2018-08-29T00:43:14.117Z,23.81
2018-08-29T00:43:46.257Z,23.81
2018-08-29T00:44:18.340Z,23.81
2018-08-29T00:44:50.445Z,23.83
2018-08-29T00:45:22.574Z,23.82
2018-08-29T00:45:54.828Z,23.80
2018-08-29T00:46:26.966Z,23.79
2018-08-29T00:46:59.046Z,23.79
2018-08-29T00:47:31.293Z,23.80
2018-08-29T00:48:03.392Z,23.81
2018-08-29T00:48:35.593Z,23.81
2018-08-29T00:49:07.725Z,23.81
2018-08-29T00:49:39.849Z,23.82
2018-08-29T00:50:11.909Z,23.81
2018-08-29T00:50:44.038Z,23.80
2018-08-29T00:51:16.147Z,23.79
2018-08-29T00:51:48.221Z,23.78
2018-08-29T00:52:20.319Z,23.78
2018-08-29T00:52:52.443Z,23.77
2018-08-29T00:53:24.506Z,23.76
2018-08-29T00:53:56.721Z,23.76
2018-08-29T00:54:28.809Z,23.77
2018-08-29T00:55:01.003Z,23.76
2018-08-29T00:55:33.294Z,23.77
2018-08-29T00:56:05.554Z,23.76
2018-08-29T00:56:37.659Z,23.77
2018-08-29T00:57:09.749Z,23.77
2018-08-29T00:57:42.109Z,23.74
2018-08-29T00:58:14.358Z,23.73
2018-08-29T00:58:46.615Z,23.76
2018-08-29T00:59:18.701Z,23.77
2018-08-29T00:59:50.838Z,23.77
2018-08-29T01:00:23.131Z,23.78
2018-08-29T01:00:55.487Z,23.78
2018-08-29T01:01:27.576Z,23.77
2018-08-29T01:01:59.753Z,23.78
2018-08-29T01:02:31.867Z,23.79
2018-08-29T01:03:04.060Z,23.81
2018-08-29T01:03:36.161Z,23.79
2018-08-29T01:04:08.515Z,23.80
2018-08-29T01:04:40.767Z,23.79
2018-08-29T01:05:12.924Z,23.77
2018-08-29T01:05:45.109Z,23.76
2018-08-29T01:06:17.290Z,23.76
2018-08-29T01:06:49.348Z,23.77
2018-08-29T01:07:21.489Z,23.76
2018-08-29T01:07:53.634Z,23.75
2018-08-29T01:08:25.809Z,23.74
2018-08-29T01:08:57.926Z,23.73
2018-08-29T01:09:30.109Z,23.74
2018-08-29T01:10:02.271Z,23.76
2018-08-29T01:10:34.424Z,23.76
2018-08-29T01:11:06.685Z,23.76
2018-08-29T01:11:38.874Z,23.76
2018-08-29T01:12:10.981Z,23.76
2018-08-29T01:12:43.103Z,23.74
2018-08-29T01:13:15.241Z,23.74
2018-08-29T01:13:47.457Z,23.73
2018-08-29T01:14:19.676Z,23.73
2018-08-29T01:14:51.762Z,23.71
2018-08-29T01:15:24.017Z,23.70
2018-08-29T01:15:56.139Z,23.68
2018-08-29T01:16:28.240Z,23.69
2018-08-29T01:17:00.318Z,23.69
2018-08-29T01:17:32.433Z,23.69
2018-08-29T01:18:04.511Z,23.69
2018-08-29T01:18:36.580Z,23.69
2018-08-29T01:19:08.692Z,23.69
2018-08-29T01:19:40.754Z,23.69
2018-08-29T01:20:12.872Z,23.69
2018-08-29T01:20:44.953Z,23.69
2018-08-29T01:21:17.036Z,23.68
2018-08-29T01:21:49.145Z,23.68
2018-08-29T01:22:21.222Z,23.68
2018-08-29T01:22:53.344Z,23.67
2018-08-29T01:23:25.561Z,23.69
2018-08-29T01:23:57.680Z,23.68
2018-08-29T01:24:29.805Z,23.68
2018-08-29T01:25:01.918Z,23.65
2018-08-29T01:25:33.963Z,23.64
2018-08-29T01:26:06.180Z,23.64
2018-08-29T01:26:38.413Z,23.64
2018-08-29T01:27:10.533Z,23.63
2018-08-29T01:27:42.658Z,23.62
2018-08-29T01:28:14.765Z,23.62
2018-08-29T01:28:46.970Z,23.61
2018-08-29T01:29:19.301Z,23.60
2018-08-29T01:29:51.569Z,23.60
2018-08-29T01:30:23.794Z,23.59
2018-08-29T01:30:55.940Z,23.57
2018-08-29T01:31:28.105Z,23.58
2018-08-29T01:32:00.219Z,23.58
2018-08-29T01:32:32.347Z,23.58
2018-08-29T01:33:04.463Z,23.58
2018-08-29T01:33:36.601Z,23.59
2018-08-29T01:34:08.717Z,23.60
2018-08-29T01:34:40.873Z,23.61
2018-08-29T01:35:12.939Z,23.60
2018-08-29T01:35:45.132Z,23.61
2018-08-29T01:36:17.193Z,23.61
2018-08-29T01:36:49.310Z,23.61
2018-08-29T01:37:21.487Z,23.63
2018-08-29T01:37:53.602Z,23.61
2018-08-29T01:38:25.720Z,23.60
2018-08-29T01:38:57.819Z,23.62
2018-08-29T01:39:29.911Z,23.63
2018-08-29T01:40:02.113Z,23.63
2018-08-29T01:40:34.260Z,23.63
2018-08-29T01:41:06.335Z,23.64
2018-08-29T01:41:38.431Z,23.63
2018-08-29T01:42:10.666Z,23.64
2018-08-29T01:42:42.805Z,23.65
2018-08-29T01:43:15.392Z,23.64
2018-08-29T01:43:47.558Z,23.63
2018-08-29T01:44:19.805Z,23.61
2018-08-29T01:44:52.010Z,23.61
2018-08-29T01:45:24.161Z,23.61
2018-08-29T01:45:56.304Z,23.58
2018-08-29T01:46:28.401Z,23.57
2018-08-29T01:47:00.669Z,23.57
2018-08-29T01:47:32.816Z,23.56
2018-08-29T01:48:04.929Z,23.54
2018-08-29T01:48:37.090Z,23.54
2018-08-29T01:49:09.244Z,23.54
2018-08-29T01:49:41.460Z,23.54
2018-08-29T01:50:13.582Z,23.55
2018-08-29T01:50:45.809Z,23.55
2018-08-29T01:51:17.914Z,23.57
2018-08-29T01:51:50.052Z,23.58
2018-08-29T01:52:22.194Z,23.58
2018-08-29T01:52:54.366Z,23.58
2018-08-29T01:53:26.449Z,23.58
2018-08-29T01:53:58.550Z,23.58
2018-08-29T01:54:30.749Z,23.61
2018-08-29T01:55:02.977Z,23.61
2018-08-29T01:55:35.030Z,23.61
2018-08-29T01:56:07.139Z,23.61
2018-08-29T01:56:39.402Z,23.60
2018-08-29T01:57:11.654Z,23.63
2018-08-29T01:57:43.920Z,23.63
2018-08-29T01:58:16.011Z,23.66
2018-08-29T01:58:48.251Z,23.67
2018-08-29T01:59:20.510Z,23.67
2018-08-29T01:59:52.739Z,23.66
2018-08-29T02:00:24.885Z,23.63
2018-08-29T02:00:56.966Z,23.61
2018-08-29T02:01:29.046Z,23.63
2018-08-29T02:02:01.126Z,23.63
2018-08-29T02:02:33.543Z,23.65
2018-08-29T02:03:05.914Z,23.66
2018-08-29T02:03:38.007Z,23.68
2018-08-29T02:04:10.382Z,23.73
2018-08-29T02:04:42.467Z,23.78
2018-08-29T02:05:14.585Z,23.78
2018-08-29T02:05:46.774Z,23.77
2018-08-29T02:06:18.866Z,23.76
2018-08-29T02:06:51.090Z,23.71
2018-08-29T02:07:23.154Z,23.70
2018-08-29T02:07:55.267Z,23.68
2018-08-29T02:08:27.414Z,23.65
2018-08-29T02:08:59.625Z,23.65
2018-08-29T02:09:31.708Z,23.64
2018-08-29T02:10:03.850Z,23.63
2018-08-29T02:10:35.949Z,23.62
2018-08-29T02:11:08.056Z,23.62
2018-08-29T02:11:40.132Z,23.63
2018-08-29T02:12:12.204Z,23.62
2018-08-29T02:12:44.285Z,23.65
2018-08-29T02:13:16.393Z,23.67
2018-08-29T02:13:48.480Z,23.67
2018-08-29T02:14:20.624Z,23.66
2018-08-29T02:14:52.802Z,23.66
2018-08-29T02:15:25.025Z,23.63
2018-08-29T02:15:57.249Z,23.62
2018-08-29T02:16:29.449Z,23.61
2018-08-29T02:17:01.757Z,23.59
2018-08-29T02:17:33.845Z,23.59
2018-08-29T02:18:05.940Z,23.59
2018-08-29T02:18:38.245Z,23.58
2018-08-29T02:19:10.486Z,23.58
2018-08-29T02:19:42.626Z,23.57
2018-08-29T02:20:14.721Z,23.56
2018-08-29T02:20:46.948Z,23.55
2018-08-29T02:21:19.153Z,23.55
2018-08-29T02:21:51.366Z,23.55
2018-08-29T02:22:23.456Z,23.54
2018-08-29T02:22:55.569Z,23.53
2018-08-29T02:23:27.761Z,23.53
2018-08-29T02:23:59.833Z,23.52
2018-08-29T02:24:32.130Z,23.51
2018-08-29T02:25:04.232Z,23.50
2018-08-29T02:25:36.333Z,23.50
2018-08-29T02:26:08.439Z,23.50
2018-08-29T02:26:40.540Z,23.49
2018-08-29T02:27:12.634Z,23.51
2018-08-29T02:27:44.767Z,23.50
2018-08-29T02:28:16.875Z,23.50
2018-08-29T02:28:49.053Z,23.48
2018-08-29T02:29:21.406Z,23.50
2018-08-29T02:29:53.514Z,23.49
2018-08-29T02:30:25.637Z,23.50
2018-08-29T02:30:57.743Z,23.51
2018-08-29T02:31:29.860Z,23.52
2018-08-29T02:32:02.083Z,23.54
2018-08-29T02:32:34.230Z,23.54
2018-08-29T02:33:06.395Z,23.54
2018-08-29T02:33:38.579Z,23.53
2018-08-29T02:34:10.695Z,23.53
2018-08-29T02:34:42.993Z,23.52
2018-08-29T02:35:15.098Z,23.50
2018-08-29T02:35:47.219Z,23.50
2018-08-29T02:36:19.396Z,23.49
2018-08-29T02:36:51.618Z,23.50
2018-08-29T02:37:23.756Z,23.50
2018-08-29T02:37:55.806Z,23.48
2018-08-29T02:38:28.031Z,23.48
2018-08-29T02:39:00.282Z,23.47
2018-08-29T02:39:32.490Z,23.48
2018-08-29T02:40:04.591Z,23.47
2018-08-29T02:40:36.733Z,23.47
2018-08-29T02:41:08.897Z,23.46
2018-08-29T02:41:41.045Z,23.47
2018-08-29T02:42:13.137Z,23.46
2018-08-29T02:42:45.260Z,23.47
2018-08-29T02:43:17.363Z,23.48
2018-08-29T02:43:49.457Z,23.49
2018-08-29T02:44:21.534Z,23.50
2018-08-29T02:44:53.871Z,23.53
2018-08-29T02:45:26.068Z,23.54
2018-08-29T02:45:58.118Z,23.55
2018-08-29T02:46:30.341Z,23.57
2018-08-29T02:47:02.413Z,23.57
2018-08-29T02:47:34.545Z,23.56
2018-08-29T02:48:06.802Z,23.54
2018-08-29T02:48:39.054Z,23.55
2018-08-29T02:49:11.177Z,23.54
2018-08-29T02:49:43.354Z,23.53
2018-08-29T02:50:15.557Z,23.53
2018-08-29T02:50:47.673Z,23.51
2018-08-29T02:51:19.837Z,23.51
2018-08-29T02:51:52.079Z,23.50
2018-08-29T02:52:24.404Z,23.50
2018-08-29T02:52:56.642Z,23.51
2018-08-29T02:53:28.813Z,23.48
2018-08-29T02:54:01.104Z,23.47
2018-08-29T02:54:33.364Z,23.45
2018-08-29T02:55:05.518Z,23.45
2018-08-29T02:55:37.595Z,23.44
2018-08-29T02:56:09.707Z,23.39
2018-08-29T02:56:41.888Z,23.38
2018-08-29T02:57:14.030Z,23.36
2018-08-29T02:57:46.106Z,23.35
2018-08-29T02:58:18.213Z,23.36
2018-08-29T02:58:50.347Z,23.35
2018-08-29T02:59:22.523Z,23.36
2018-08-29T02:59:54.629Z,23.37
2018-08-29T03:00:26.746Z,23.38
2018-08-29T03:00:58.838Z,23.38
2018-08-29T03:01:30.942Z,23.40
2018-08-29T03:02:03.021Z,23.42
2018-08-29T03:02:35.122Z,23.45
2018-08-29T03:03:07.210Z,23.48
2018-08-29T03:03:39.517Z,23.49
2018-08-29T03:04:11.608Z,23.49
2018-08-29T03:04:43.691Z,23.48
2018-08-29T03:05:15.797Z,23.49
2018-08-29T03:05:47.983Z,23.50
2018-08-29T03:06:20.101Z,23.50
2018-08-29T03:06:52.334Z,23.49
2018-08-29T03:07:24.549Z,23.48
2018-08-29T03:07:56.816Z,23.48
2018-08-29T03:08:29.100Z,23.48
2018-08-29T03:09:01.314Z,23.48
2018-08-29T03:09:33.565Z,23.48
2018-08-29T03:10:05.769Z,23.47
2018-08-29T03:10:37.886Z,23.48
2018-08-29T03:11:10.011Z,23.48
2018-08-29T03:11:42.132Z,23.49
2018-08-29T03:12:14.219Z,23.52
2018-08-29T03:12:46.293Z,23.55
2018-08-29T03:13:18.414Z,23.55
2018-08-29T03:13:50.516Z,23.55
2018-08-29T03:14:22.691Z,23.57
2018-08-29T03:14:54.910Z,23.59
2018-08-29T03:15:26.985Z,23.60
2018-08-29T03:15:59.188Z,23.64
2018-08-29T03:16:31.300Z,23.63
2018-08-29T03:17:03.409Z,23.60
2018-08-29T03:17:35.705Z,23.58
2018-08-29T03:18:07.801Z,23.55
2018-08-29T03:18:39.883Z,23.56
2018-08-29T03:19:11.999Z,23.54
2018-08-29T03:19:44.538Z,23.52
2018-08-29T03:20:16.594Z,23.51
2018-08-29T03:20:48.683Z,23.52
2018-08-29T03:21:20.770Z,23.55
2018-08-29T03:21:52.833Z,23.56
2018-08-29T03:22:24.949Z,23.59
2018-08-29T03:22:57.155Z,23.59
2018-08-29T03:23:29.347Z,23.60
2018-08-29T03:24:01.439Z,23.60
2018-08-29T03:24:33.485Z,23.61
2018-08-29T03:25:42.095Z,23.63
2018-08-29T03:26:14.169Z,23.68
2018-08-29T03:26:46.258Z,23.66
2018-08-29T03:27:18.378Z,23.64
2018-08-29T03:27:50.441Z,23.62
2018-08-29T03:28:22.661Z,23.59
2018-08-29T03:28:54.782Z,23.60
2018-08-29T03:29:27.161Z,23.58
2018-08-29T03:29:59.277Z,23.56
2018-08-29T03:30:31.415Z,23.54
2018-08-29T03:31:03.974Z,23.52
2018-08-29T03:31:36.068Z,23.50
2018-08-29T03:32:08.189Z,23.48
2018-08-29T03:32:40.333Z,23.47
2018-08-29T03:33:12.793Z,23.42
2018-08-29T03:33:44.893Z,23.41
2018-08-29T03:34:17.204Z,23.38
2018-08-29T03:34:49.288Z,23.37
2018-08-29T03:35:21.389Z,23.34
2018-08-29T03:35:53.496Z,23.33
2018-08-29T03:36:25.673Z,23.31
2018-08-29T03:36:57.766Z,23.29
2018-08-29T03:37:29.888Z,23.30
2018-08-29T03:38:01.949Z,23.30
2018-08-29T03:38:34.037Z,23.27
2018-08-29T03:39:06.185Z,23.26
2018-08-29T03:39:38.296Z,23.26
2018-08-29T03:40:10.409Z,23.26
2018-08-29T03:40:42.520Z,23.27
2018-08-29T03:41:14.652Z,23.27
2018-08-29T03:41:46.768Z,23.28
2018-08-29T03:42:18.831Z,23.30
2018-08-29T03:42:51.066Z,23.33
2018-08-29T03:43:23.150Z,23.34
2018-08-29T03:43:55.359Z,23.34
2018-08-29T03:44:27.483Z,23.35
2018-08-29T03:44:59.567Z,23.38
2018-08-29T03:45:31.785Z,23.36
2018-08-29T03:46:03.915Z,23.38
2018-08-29T03:46:35.987Z,23.39
2018-08-29T03:47:08.249Z,23.39
2018-08-29T03:47:40.499Z,23.40
2018-08-29T03:48:12.597Z,23.43
2018-08-29T03:48:45.048Z,23.45
2018-08-29T03:49:17.269Z,23.45
2018-08-29T03:49:49.431Z,23.43
2018-08-29T03:50:21.515Z,23.49
2018-08-29T03:50:53.815Z,23.51
2018-08-29T03:51:25.945Z,23.54
2018-08-29T03:51:58.109Z,23.55
2018-08-29T03:52:30.282Z,23.58
2018-08-29T03:53:02.389Z,23.58
2018-08-29T03:53:34.543Z,23.58
2018-08-29T03:54:06.792Z,23.55
2018-08-29T03:54:39.034Z,23.51
2018-08-29T03:55:11.166Z,23.48
2018-08-29T03:55:43.219Z,23.47
2018-08-29T03:56:15.333Z,23.46
2018-08-29T03:56:47.537Z,23.43
2018-08-29T03:57:19.643Z,23.41
2018-08-29T03:57:51.801Z,23.39
2018-08-29T03:58:23.942Z,23.39
2018-08-29T03:58:56.074Z,23.39
2018-08-29T03:59:28.170Z,23.40
2018-08-29T04:00:00.245Z,23.41
2018-08-29T04:00:32.496Z,23.40
2018-08-29T04:01:04.697Z,23.40
2018-08-29T04:01:36.771Z,23.39
2018-08-29T04:02:08.966Z,23.41
2018-08-29T04:02:41.263Z,23.41
2018-08-29T04:03:13.526Z,23.39
2018-08-29T04:03:45.605Z,23.43
2018-08-29T04:04:17.731Z,23.45
2018-08-29T04:04:49.834Z,23.49
2018-08-29T04:05:21.989Z,23.50
2018-08-29T04:05:54.090Z,23.51
2018-08-29T04:06:26.265Z,23.51
2018-08-29T04:06:58.365Z,23.51
2018-08-29T04:07:30.480Z,23.55
2018-08-29T04:08:02.604Z,23.56
2018-08-29T04:08:34.724Z,23.56
2018-08-29T04:09:06.878Z,23.51
2018-08-29T04:09:38.929Z,23.48
2018-08-29T04:10:11.085Z,23.47
2018-08-29T04:10:43.195Z,23.45
2018-08-29T04:11:15.482Z,23.42
2018-08-29T04:11:47.637Z,23.43
2018-08-29T04:12:19.743Z,23.41
2018-08-29T04:12:51.948Z,23.40
2018-08-29T04:13:24.034Z,23.40
2018-08-29T04:13:56.138Z,23.41
2018-08-29T04:14:28.209Z,23.45
2018-08-29T04:15:00.301Z,23.48
2018-08-29T04:15:32.407Z,23.51
2018-08-29T04:16:04.601Z,23.52
2018-08-29T04:16:36.926Z,23.52
2018-08-29T04:17:09.175Z,23.52
2018-08-29T04:17:41.244Z,23.51
2018-08-29T04:18:13.401Z,23.48
2018-08-29T04:18:45.487Z,23.45
2018-08-29T04:19:17.690Z,23.45
2018-08-29T04:19:50.113Z,23.42
2018-08-29T04:20:22.514Z,23.44
2018-08-29T04:20:54.641Z,23.41
2018-08-29T04:21:26.745Z,23.42
2018-08-29T04:21:58.984Z,23.39
2018-08-29T04:22:31.063Z,23.38
2018-08-29T04:23:03.420Z,23.37
2018-08-29T04:23:35.524Z,23.37
2018-08-29T04:24:07.641Z,23.37
2018-08-29T04:24:39.750Z,23.37
2018-08-29T04:25:11.970Z,23.37
2018-08-29T04:25:44.060Z,23.37
2018-08-29T04:26:16.208Z,23.36
2018-08-29T04:26:48.313Z,23.36
2018-08-29T04:27:20.447Z,23.33
2018-08-29T04:27:52.571Z,23.33
2018-08-29T04:28:24.820Z,23.33
2018-08-29T04:28:56.909Z,23.31
2018-08-29T04:29:29.038Z,23.30
2018-08-29T04:30:01.424Z,23.30
2018-08-29T04:30:33.581Z,23.31
2018-08-29T04:31:05.942Z,23.33
2018-08-29T04:31:38.025Z,23.35
2018-08-29T04:32:10.115Z,23.34
2018-08-29T04:32:42.197Z,23.35
2018-08-29T04:33:14.291Z,23.33
2018-08-29T04:33:46.502Z,23.25
2018-08-29T04:34:18.662Z,22.91
2018-08-29T04:34:50.722Z,22.61
2018-08-29T04:35:22.834Z,22.39
2018-08-29T04:35:55.016Z,22.22
2018-08-29T04:36:27.170Z,22.08
2018-08-29T04:36:59.229Z,22.00
2018-08-29T04:37:31.329Z,21.92
2018-08-29T04:38:03.399Z,21.90
2018-08-29T04:38:35.503Z,21.88
2018-08-29T04:39:07.630Z,21.82
2018-08-29T04:39:39.734Z,21.82
2018-08-29T04:40:11.842Z,21.78
2018-08-29T04:40:43.952Z,21.76
2018-08-29T04:41:16.036Z,21.74
2018-08-29T04:41:48.296Z,21.74
2018-08-29T04:42:20.363Z,21.73
2018-08-29T04:42:52.600Z,21.69
2018-08-29T04:43:24.732Z,21.64
2018-08-29T04:43:57.030Z,21.62
2018-08-29T04:44:29.090Z,21.64
2018-08-29T04:45:01.272Z,21.65
2018-08-29T04:45:33.544Z,21.54
2018-08-29T04:46:05.630Z,21.46
2018-08-29T04:46:37.707Z,21.42
2018-08-29T04:47:09.799Z,21.42
2018-08-29T04:47:41.909Z,21.41
2018-08-29T04:48:14.006Z,21.43
2018-08-29T04:48:46.113Z,21.45
2018-08-29T04:49:18.300Z,21.47
2018-08-29T04:49:50.360Z,21.46
2018-08-29T04:50:22.483Z,21.50
2018-08-29T04:50:54.546Z,21.47
2018-08-29T04:51:26.685Z,21.42
2018-08-29T04:51:58.970Z,21.37
2018-08-29T04:52:31.104Z,21.36
2018-08-29T04:53:03.185Z,21.39
2018-08-29T04:53:35.333Z,21.43
2018-08-29T04:54:07.549Z,21.42
2018-08-29T04:54:39.592Z,21.41
2018-08-29T04:55:11.704Z,21.42
2018-08-29T04:55:43.924Z,21.43
2018-08-29T04:56:54.376Z,21.48
2018-08-29T04:57:26.521Z,21.55
2018-08-29T04:57:58.744Z,21.58
2018-08-29T04:58:30.852Z,21.59
2018-08-29T04:59:03.065Z,21.50
2018-08-29T04:59:35.158Z,21.47
2018-08-29T05:00:07.223Z,21.45
2018-08-29T05:00:39.295Z,21.42
2018-08-29T05:01:11.521Z,21.37
2018-08-29T05:01:43.617Z,21.36
2018-08-29T05:02:15.709Z,21.40
2018-08-29T05:02:47.809Z,21.42
2018-08-29T05:03:20.197Z,21.45
2018-08-29T05:03:52.406Z,21.49
2018-08-29T05:04:24.565Z,21.54
2018-08-29T05:04:56.698Z,21.48
2018-08-29T05:05:28.957Z,21.57
2018-08-29T05:06:01.106Z,21.73
2018-08-29T05:06:33.180Z,21.89
2018-08-29T05:07:05.451Z,22.05
2018-08-29T05:07:37.841Z,22.21
2018-08-29T05:08:10.017Z,22.31
2018-08-29T05:08:42.202Z,22.43
2018-08-29T05:09:14.301Z,22.48
2018-08-29T05:09:46.437Z,22.54
2018-08-29T05:10:18.566Z,22.61
2018-08-29T05:10:50.888Z,22.63
2018-08-29T05:11:23.106Z,22.66
2018-08-29T05:11:55.256Z,22.69
2018-08-29T05:12:27.356Z,22.70
2018-08-29T05:12:59.468Z,22.74
2018-08-29T05:13:31.634Z,22.74
2018-08-29T05:14:03.709Z,22.77
2018-08-29T05:14:35.857Z,22.77
2018-08-29T05:15:07.989Z,22.78
2018-08-29T05:15:40.198Z,22.78
2018-08-29T05:16:12.308Z,22.80
2018-08-29T05:16:44.381Z,22.79
2018-08-29T05:17:16.539Z,22.80
2018-08-29T05:17:48.605Z,22.81
2018-08-29T05:18:20.953Z,22.83
2018-08-29T05:18:53.175Z,22.87
2018-08-29T05:19:25.349Z,22.87
2018-08-29T05:19:57.421Z,22.88
2018-08-29T05:20:29.661Z,22.89
2018-08-29T05:21:01.723Z,22.89
2018-08-29T05:21:33.889Z,22.87
2018-08-29T05:22:05.985Z,22.88
2018-08-29T05:22:38.081Z,22.87
2018-08-29T05:23:10.289Z,22.86
2018-08-29T05:23:42.394Z,22.84
2018-08-29T05:24:14.669Z,22.84
2018-08-29T05:24:46.876Z,22.85
2018-08-29T05:25:19.049Z,22.88
2018-08-29T05:25:51.311Z,22.91
2018-08-29T05:26:23.371Z,22.91
2018-08-29T05:26:55.489Z,22.89
2018-08-29T05:27:27.566Z,22.91
2018-08-29T05:27:59.690Z,22.90
2018-08-29T05:28:31.816Z,22.90
2018-08-29T05:29:03.980Z,22.89
2018-08-29T05:29:36.288Z,22.91
2018-08-29T05:30:08.346Z,22.92
2018-08-29T05:30:40.561Z,22.92
2018-08-29T05:31:12.653Z,22.91
2018-08-29T05:31:44.804Z,22.91
2018-08-29T05:32:16.923Z,22.90
2018-08-29T05:32:49.016Z,22.90
2018-08-29T05:33:21.257Z,22.88
2018-08-29T05:33:53.329Z,22.89
2018-08-29T05:34:25.561Z,22.89
2018-08-29T05:34:57.823Z,22.91
2018-08-29T05:35:29.874Z,22.91
2018-08-29T05:36:02.092Z,22.94
2018-08-29T05:36:34.217Z,22.93
2018-08-29T05:37:06.332Z,22.94
2018-08-29T05:37:38.405Z,22.97
2018-08-29T05:38:10.500Z,22.95
2018-08-29T05:38:42.621Z,22.96
2018-08-29T05:39:14.701Z,22.97
2018-08-29T05:39:46.814Z,22.97
2018-08-29T05:40:18.921Z,22.98
2018-08-29T05:40:51.001Z,23.00
2018-08-29T05:41:23.136Z,23.02
2018-08-29T05:41:55.412Z,23.04
2018-08-29T05:42:27.675Z,23.04
2018-08-29T05:43:00.028Z,23.03
2018-08-29T05:43:32.310Z,23.05
2018-08-29T05:44:04.648Z,23.05
2018-08-29T05:44:36.781Z,23.05
2018-08-29T05:45:08.849Z,23.04
2018-08-29T05:45:41.011Z,23.04
2018-08-29T05:46:13.150Z,23.05
2018-08-29T05:46:45.261Z,23.04
2018-08-29T05:47:17.624Z,23.05
2018-08-29T05:47:49.732Z,23.05
2018-08-29T05:48:22.080Z,23.04
2018-08-29T05:48:54.260Z,23.05
2018-08-29T05:49:26.473Z,23.05
2018-08-29T05:49:58.550Z,23.06
2018-08-29T05:50:30.640Z,23.06
2018-08-29T05:51:02.728Z,23.08
2018-08-29T05:51:34.836Z,23.07
2018-08-29T05:52:06.925Z,23.07
2018-08-29T05:52:39.042Z,23.07
2018-08-29T05:53:11.125Z,23.07
2018-08-29T05:53:43.229Z,23.07
2018-08-29T05:54:15.345Z,23.07
2018-08-29T05:54:47.418Z,23.09
2018-08-29T05:55:19.678Z,23.10
2018-08-29T05:55:51.738Z,23.11
2018-08-29T05:56:23.939Z,23.13
2018-08-29T05:56:56.203Z,23.14
2018-08-29T05:57:28.431Z,23.14
2018-08-29T05:58:00.510Z,23.16
2018-08-29T05:58:32.620Z,23.19
2018-08-29T05:59:04.877Z,23.20
2018-08-29T05:59:36.998Z,23.20
2018-08-29T06:00:09.117Z,23.18
2018-08-29T06:00:41.254Z,23.17
2018-08-29T06:01:13.376Z,23.16
2018-08-29T06:01:45.662Z,23.15
2018-08-29T06:02:17.920Z,23.15
2018-08-29T06:02:50.275Z,23.16
2018-08-29T06:03:22.346Z,23.15
2018-08-29T06:03:54.533Z,23.16
2018-08-29T06:04:26.645Z,23.15
2018-08-29T06:04:58.724Z,23.15
2018-08-29T06:05:30.849Z,23.15
2018-08-29T06:06:02.944Z,23.14
2018-08-29T06:06:35.111Z,23.13
2018-08-29T06:07:07.245Z,23.11
2018-08-29T06:07:39.333Z,23.13
2018-08-29T06:08:11.461Z,23.11
2018-08-29T06:08:43.626Z,23.13
2018-08-29T06:09:16.028Z,23.10
2018-08-29T06:09:48.162Z,23.10
2018-08-29T06:10:20.309Z,23.10
2018-08-29T06:10:52.420Z,23.09
2018-08-29T06:11:24.600Z,23.09
2018-08-29T06:11:56.789Z,23.07
2018-08-29T06:12:28.876Z,23.07
2018-08-29T06:13:01.031Z,23.07
2018-08-29T06:13:33.125Z,23.07
2018-08-29T06:14:05.186Z,23.06
2018-08-29T06:14:37.320Z,23.08
2018-08-29T06:15:09.518Z,23.09
2018-08-29T06:15:41.724Z,23.08
2018-08-29T06:16:13.919Z,23.09
2018-08-29T06:16:46.280Z,23.08
2018-08-29T06:17:18.497Z,23.10
2018-08-29T06:17:50.659Z,23.09
2018-08-29T06:18:23.016Z,23.08
2018-08-29T06:18:55.206Z,23.08
2018-08-29T06:19:27.423Z,23.07
2018-08-29T06:19:59.928Z,23.08
2018-08-29T06:20:32.170Z,23.08
2018-08-29T06:21:04.265Z,23.08
2018-08-29T06:21:36.410Z,23.07
2018-08-29T06:22:08.703Z,23.07
2018-08-29T06:22:41.162Z,23.07
2018-08-29T06:23:13.262Z,23.05
2018-08-29T06:23:45.465Z,23.07
2018-08-29T06:24:17.589Z,23.07
2018-08-29T06:24:49.671Z,23.08
2018-08-29T06:25:21.778Z,23.07
2018-08-29T06:25:54.026Z,23.09
2018-08-29T06:26:26.249Z,23.09
2018-08-29T06:26:58.652Z,23.09
2018-08-29T06:27:30.661Z,23.10
2018-08-29T06:28:02.895Z,23.08
2018-08-29T06:28:35.208Z,23.10
2018-08-29T06:29:07.291Z,23.11
2018-08-29T06:29:39.398Z,23.10
2018-08-29T06:30:11.629Z,23.10
2018-08-29T06:30:43.763Z,23.10
2018-08-29T06:31:15.933Z,23.09
2018-08-29T06:31:48.133Z,23.09
2018-08-29T06:32:20.297Z,23.09
2018-08-29T06:32:52.441Z,23.07
2018-08-29T06:33:24.509Z,23.08
2018-08-29T06:33:56.719Z,23.07
2018-08-29T06:34:28.828Z,23.08
2018-08-29T06:35:01.094Z,23.10
2018-08-29T06:35:33.204Z,23.11
2018-08-29T06:36:05.344Z,23.11
2018-08-29T06:36:37.645Z,23.11
2018-08-29T06:37:09.735Z,23.11
2018-08-29T06:37:41.849Z,23.12
2018-08-29T06:38:13.963Z,23.11
2018-08-29T06:38:46.054Z,23.14
2018-08-29T06:39:18.160Z,23.13
2018-08-29T06:39:50.282Z,23.11
2018-08-29T06:40:22.356Z,23.12
2018-08-29T06:40:54.465Z,23.11
2018-08-29T06:41:26.838Z,23.13
2018-08-29T06:41:58.908Z,23.11
2018-08-29T06:42:31.171Z,23.13
2018-08-29T06:43:03.360Z,23.11
2018-08-29T06:43:35.460Z,23.13
2018-08-29T06:44:07.626Z,23.10
2018-08-29T06:44:39.830Z,23.10
2018-08-29T06:45:12.044Z,23.10
2018-08-29T06:45:44.228Z,23.08
2018-08-29T06:46:16.707Z,23.08
2018-08-29T06:46:48.830Z,23.09
2018-08-29T06:47:20.923Z,23.10
2018-08-29T06:47:53.151Z,23.11
2018-08-29T06:48:25.265Z,23.15
2018-08-29T06:48:57.377Z,23.19
2018-08-29T06:49:29.481Z,23.22
2018-08-29T06:50:01.605Z,23.24
2018-08-29T06:50:33.830Z,23.26
2018-08-29T06:51:05.985Z,23.25
2018-08-29T06:51:38.180Z,23.26
2018-08-29T06:52:10.498Z,23.25
2018-08-29T06:52:42.581Z,23.24
2018-08-29T06:53:15.320Z,23.24
2018-08-29T06:53:47.427Z,23.25
2018-08-29T06:54:19.682Z,23.26
2018-08-29T06:54:51.775Z,23.30
2018-08-29T06:55:24.061Z,23.33